createdAt,value
2017-09-13T00:00:47.452Z,1.50
2017-09-13T00:03:14.924Z,1.73
2017-09-13T00:05:42.374Z,1.60
2017-09-13T00:08:10.614Z,1.63
2017-09-13T00:10:38.066Z,1.90
2017-09-13T00:13:06.294Z,1.17
2017-09-13T00:15:33.785Z,1.50
2017-09-13T00:18:01.252Z,1.70
2017-09-13T00:20:28.710Z,2.20
2017-09-13T00:22:57.058Z,2.33
2017-09-13T00:25:24.524Z,2.17
2017-09-13T00:27:52.020Z,1.70
2017-09-13T00:30:19.478Z,1.80
2017-09-13T00:32:46.935Z,1.67
2017-09-13T00:35:15.169Z,2.07
2017-09-13T00:37:42.626Z,1.70
2017-09-13T00:40:10.119Z,1.90
2017-09-13T00:42:37.569Z,2.00
2017-09-13T00:45:05.807Z,1.90
2017-09-13T00:47:33.270Z,2.37
2017-09-13T00:50:00.940Z,1.67
2017-09-13T00:52:29.272Z,2.43
2017-09-13T00:54:56.729Z,1.70
2017-09-13T00:57:24.981Z,2.17
2017-09-13T00:59:52.476Z,1.90
2017-09-13T01:02:19.939Z,2.00
2017-09-13T01:04:47.449Z,1.90
2017-09-13T01:07:14.920Z,1.53
2017-09-13T01:09:42.415Z,1.80
2017-09-13T01:12:09.915Z,2.30
2017-09-13T01:14:37.541Z,1.63
2017-09-13T01:17:05.009Z,1.63
2017-09-13T01:19:32.669Z,2.23
2017-09-13T01:22:00.151Z,2.10
2017-09-13T01:24:27.638Z,2.10
2017-09-13T01:26:55.941Z,1.70
2017-09-13T01:29:23.395Z,1.77
2017-09-13T01:31:50.866Z,2.70
2017-09-13T01:34:18.330Z,1.70
2017-09-13T01:36:45.813Z,2.63
2017-09-13T01:39:14.047Z,1.60
2017-09-13T01:41:41.526Z,1.67
2017-09-13T01:44:09.007Z,2.10
2017-09-13T01:46:36.484Z,1.90
2017-09-13T01:49:03.967Z,1.70
2017-09-13T01:51:31.422Z,2.30
2017-09-13T01:53:58.897Z,1.70
2017-09-13T01:56:26.368Z,2.23
2017-09-13T01:58:54.034Z,1.93
2017-09-13T02:01:22.266Z,2.07
2017-09-13T02:03:49.756Z,2.00
2017-09-13T02:06:17.221Z,2.00
2017-09-13T02:08:44.693Z,1.90
2017-09-13T02:11:12.175Z,2.23
2017-09-13T02:13:40.400Z,1.80
2017-09-13T02:16:07.855Z,2.13
2017-09-13T02:18:36.914Z,2.07
2017-09-13T02:21:04.369Z,2.30
2017-09-13T02:23:31.849Z,2.10
2017-09-13T02:25:59.306Z,2.23
2017-09-13T02:28:26.774Z,1.90
2017-09-13T02:30:54.233Z,1.70
2017-09-13T02:33:21.693Z,2.10
2017-09-13T02:35:49.158Z,2.53
2017-09-13T02:38:16.637Z,2.10
2017-09-13T02:40:44.110Z,2.57
2017-09-13T02:43:12.338Z,1.90
2017-09-13T02:45:39.803Z,2.13
2017-09-13T02:48:07.272Z,2.20
2017-09-13T02:50:35.516Z,1.97
2017-09-13T02:53:02.999Z,2.33
2017-09-13T02:55:30.456Z,1.80
2017-09-13T02:57:57.935Z,1.90
2017-09-13T03:00:25.398Z,2.27
2017-09-13T03:02:53.633Z,2.63
2017-09-13T03:05:21.104Z,2.50
2017-09-13T03:07:48.611Z,1.90
2017-09-13T03:10:16.090Z,2.03
2017-09-13T03:12:43.553Z,2.37
2017-09-13T03:15:11.024Z,2.37
2017-09-13T03:17:38.504Z,2.37
2017-09-13T03:20:05.966Z,2.67
2017-09-13T03:22:34.211Z,2.40
2017-09-13T03:25:01.671Z,2.47
2017-09-13T03:27:29.173Z,2.27
2017-09-13T03:29:56.637Z,2.40
2017-09-13T03:32:24.104Z,4.80
2017-09-13T03:34:52.337Z,2.40
2017-09-13T03:37:20.601Z,3.20
2017-09-13T03:39:48.854Z,3.33
2017-09-13T03:42:16.317Z,3.30
2017-09-13T03:44:43.795Z,3.20
2017-09-13T03:47:11.259Z,2.63
2017-09-13T03:49:39.499Z,3.50
2017-09-13T03:52:06.962Z,2.90
2017-09-13T03:54:34.545Z,2.50
2017-09-13T03:57:02.018Z,2.40
2017-09-13T03:59:29.550Z,2.50
2017-09-13T04:01:57.032Z,2.40
2017-09-13T04:04:24.486Z,2.47
2017-09-13T04:06:51.957Z,2.27
2017-09-13T04:09:19.431Z,2.70
2017-09-13T04:11:46.909Z,3.73
2017-09-13T04:14:14.397Z,2.53
2017-09-13T04:16:41.849Z,2.17
2017-09-13T04:19:10.098Z,2.60
2017-09-13T04:21:37.567Z,3.27
2017-09-13T04:24:05.046Z,3.43
2017-09-13T04:26:32.498Z,3.37
2017-09-13T04:28:59.984Z,5.80
2017-09-13T04:31:28.220Z,4.03
2017-09-13T04:33:55.706Z,3.33
2017-09-13T04:36:23.183Z,2.73
2017-09-13T04:38:50.663Z,2.93
2017-09-13T04:41:18.126Z,2.83
2017-09-13T04:43:45.577Z,3.03
2017-09-13T04:46:13.403Z,3.30
2017-09-13T04:48:40.984Z,2.60
2017-09-13T04:51:08.443Z,2.47
2017-09-13T04:53:36.718Z,2.90
2017-09-13T04:56:04.186Z,3.43
2017-09-13T04:58:32.555Z,2.90
2017-09-13T05:01:00.027Z,3.40
2017-09-13T05:03:27.523Z,3.47
2017-09-13T05:05:55.542Z,3.70
2017-09-13T05:08:23.040Z,3.20
2017-09-13T05:10:50.515Z,2.53
2017-09-13T05:13:17.999Z,3.50
2017-09-13T05:15:45.481Z,3.00
2017-09-13T05:18:12.959Z,3.10
2017-09-13T05:20:40.441Z,3.73
2017-09-13T05:23:07.917Z,3.80
2017-09-13T05:25:35.390Z,4.87
2017-09-13T05:28:02.931Z,4.37
2017-09-13T05:30:31.179Z,4.50
2017-09-13T05:32:58.663Z,2.73
2017-09-13T05:35:26.147Z,2.83
2017-09-13T05:37:53.637Z,2.53
2017-09-13T05:40:21.135Z,2.80
2017-09-13T05:42:49.424Z,3.33
2017-09-13T05:45:16.893Z,3.43
2017-09-13T05:47:44.351Z,3.13
2017-09-13T05:50:11.888Z,3.13
2017-09-13T05:52:39.356Z,3.27
2017-09-13T05:55:06.957Z,2.90
2017-09-13T05:57:38.030Z,3.40
2017-09-13T06:00:05.506Z,3.13
2017-09-13T06:02:32.989Z,6.90
2017-09-13T06:05:00.496Z,2.43
2017-09-13T06:07:28.871Z,2.93
2017-09-13T06:09:56.449Z,2.13
2017-09-13T06:12:23.963Z,2.07
2017-09-13T06:14:51.493Z,2.50
2017-09-13T06:17:18.949Z,2.40
2017-09-13T06:19:46.529Z,2.77
2017-09-13T06:22:14.015Z,3.23
2017-09-13T06:24:41.490Z,3.40
2017-09-13T06:27:08.983Z,1.90
2017-09-13T06:29:36.452Z,3.30
2017-09-13T06:32:03.968Z,2.40
2017-09-13T06:34:31.438Z,3.10
2017-09-13T06:36:58.979Z,2.90
2017-09-13T06:39:26.457Z,2.60
2017-09-13T06:41:53.947Z,3.50
2017-09-13T06:44:21.425Z,2.53
2017-09-13T06:46:48.903Z,3.60
2017-09-13T06:49:16.436Z,2.90
2017-09-13T06:51:43.893Z,2.60
2017-09-13T06:54:12.141Z,2.90
2017-09-13T06:56:39.608Z,3.10
2017-09-13T06:59:07.262Z,2.73
2017-09-13T07:01:34.758Z,2.70
2017-09-13T07:04:02.235Z,1.70
2017-09-13T07:06:29.840Z,2.27
2017-09-13T07:08:57.337Z,2.20
2017-09-13T07:11:24.817Z,6.00
2017-09-13T07:13:52.335Z,2.00
2017-09-13T07:16:19.804Z,2.67
2017-09-13T07:18:47.295Z,2.73
2017-09-13T07:21:15.572Z,4.30
2017-09-13T07:23:43.059Z,3.93
2017-09-13T07:26:10.517Z,3.10
2017-09-13T07:28:38.111Z,2.00
2017-09-13T07:31:06.577Z,4.10
2017-09-13T07:33:34.958Z,2.50
2017-09-13T07:36:02.434Z,2.60
2017-09-13T07:38:29.921Z,2.27
2017-09-13T07:40:57.427Z,1.97
2017-09-13T07:43:25.658Z,2.13
2017-09-13T07:45:53.250Z,1.40
2017-09-13T07:48:20.720Z,1.57
2017-09-13T07:50:48.206Z,2.30
2017-09-13T07:53:15.683Z,1.80
2017-09-13T07:55:43.154Z,1.93
2017-09-13T07:58:11.397Z,1.70
2017-09-13T08:00:39.612Z,1.57
2017-09-13T08:03:07.971Z,2.10
2017-09-13T08:05:35.455Z,2.80
2017-09-13T08:08:02.926Z,1.97
2017-09-13T08:10:30.434Z,3.17
2017-09-13T08:12:58.658Z,1.83
2017-09-13T08:15:26.881Z,2.57
2017-09-13T08:17:54.348Z,2.33
2017-09-13T08:20:21.833Z,4.57
2017-09-13T08:22:49.294Z,2.47
2017-09-13T08:25:16.972Z,3.07
2017-09-13T08:27:44.439Z,3.20
2017-09-13T08:30:12.863Z,2.23
2017-09-13T08:32:40.309Z,2.50
2017-09-13T08:35:07.770Z,2.87
2017-09-13T08:37:35.328Z,2.70
2017-09-13T08:40:02.774Z,2.23
2017-09-13T08:42:31.046Z,2.70
2017-09-13T08:44:58.532Z,2.90
2017-09-13T08:47:26.002Z,2.40
2017-09-13T08:49:53.473Z,2.80
2017-09-13T08:52:20.938Z,4.33
2017-09-13T08:54:48.408Z,2.40
2017-09-13T08:57:15.888Z,2.93
2017-09-13T08:59:44.146Z,2.20
2017-09-13T09:02:11.615Z,2.60
2017-09-13T09:04:39.091Z,2.50
2017-09-13T09:07:06.618Z,2.80
2017-09-13T09:09:35.000Z,3.83
2017-09-13T09:12:02.480Z,2.23
2017-09-13T09:14:30.716Z,2.40
2017-09-13T09:16:58.242Z,2.47
2017-09-13T09:19:25.733Z,2.60
2017-09-13T09:21:53.185Z,2.30
2017-09-13T09:24:20.705Z,3.17
2017-09-13T09:26:48.205Z,2.90
2017-09-13T09:29:15.665Z,3.30
2017-09-13T09:31:43.135Z,2.50
2017-09-13T09:34:10.667Z,3.00
2017-09-13T09:36:38.914Z,2.27
2017-09-13T09:39:06.380Z,2.50
2017-09-13T09:41:33.893Z,2.60
2017-09-13T09:44:01.394Z,3.40
2017-09-13T09:46:28.882Z,2.40
2017-09-13T09:48:57.139Z,2.70
2017-09-13T09:51:24.586Z,4.00
2017-09-13T09:53:52.082Z,2.60
2017-09-13T09:56:19.636Z,2.57
2017-09-13T09:58:47.876Z,2.47
2017-09-13T10:01:15.430Z,2.20
2017-09-13T10:03:43.936Z,2.00
2017-09-13T10:06:11.423Z,2.50
2017-09-13T10:08:39.004Z,2.43
2017-09-13T10:11:06.873Z,2.00
2017-09-13T10:13:34.337Z,2.77
2017-09-13T10:16:01.806Z,3.13
2017-09-13T10:18:29.553Z,3.20
2017-09-13T10:20:57.078Z,2.77
2017-09-13T10:23:24.561Z,2.70
2017-09-13T10:25:52.017Z,2.23
2017-09-13T10:28:20.270Z,2.30
2017-09-13T10:30:47.777Z,4.63
2017-09-13T10:33:15.269Z,2.00
2017-09-13T10:35:42.745Z,3.30
2017-09-13T10:38:10.243Z,2.13
2017-09-13T10:40:38.676Z,3.37
2017-09-13T10:43:06.213Z,2.50
2017-09-13T10:45:33.688Z,2.70
2017-09-13T10:48:01.173Z,1.93
2017-09-13T10:50:28.799Z,5.20
2017-09-13T10:52:56.809Z,2.60
2017-09-13T10:55:24.284Z,2.03
2017-09-13T10:57:51.787Z,2.70
2017-09-13T11:00:19.267Z,2.47
2017-09-13T11:02:46.947Z,2.20
2017-09-13T11:05:15.232Z,2.80
2017-09-13T11:07:42.739Z,2.00
2017-09-13T11:10:10.230Z,2.17
2017-09-13T11:12:37.760Z,2.17
2017-09-13T11:17:26.021Z,2.00
2017-09-13T11:19:53.522Z,2.10
2017-09-13T11:22:21.164Z,2.37
2017-09-13T11:24:49.423Z,2.23
2017-09-13T11:27:16.921Z,1.90
2017-09-13T11:29:44.398Z,2.10
2017-09-13T11:32:11.867Z,2.70
2017-09-13T11:34:39.379Z,2.20
2017-09-13T11:37:06.843Z,2.40
2017-09-13T11:39:34.488Z,2.47
2017-09-13T11:42:01.953Z,2.60
2017-09-13T11:44:29.497Z,3.30
2017-09-13T11:47:04.607Z,1.70
2017-09-13T11:49:32.882Z,1.90
2017-09-13T11:52:01.136Z,1.50
2017-09-13T11:54:28.769Z,2.00
2017-09-13T11:56:57.041Z,2.30
2017-09-13T11:59:24.557Z,1.97
2017-09-13T12:01:52.110Z,1.47
2017-09-13T12:04:19.587Z,1.80
2017-09-13T12:06:47.072Z,2.30
2017-09-13T12:09:14.554Z,1.83
2017-09-13T12:11:42.021Z,1.77
2017-09-13T12:14:09.522Z,2.30
2017-09-13T12:16:36.989Z,3.10
2017-09-13T12:19:05.243Z,1.57
2017-09-13T12:21:32.708Z,1.40
2017-09-13T12:24:00.189Z,2.57
2017-09-13T12:26:27.699Z,1.67
2017-09-13T12:28:55.208Z,1.80
2017-09-13T12:31:23.016Z,2.03
2017-09-13T12:33:50.490Z,2.10
2017-09-13T12:36:18.189Z,2.03
2017-09-13T12:38:45.724Z,1.40
2017-09-13T12:41:13.268Z,1.60
2017-09-13T12:43:40.747Z,2.07
2017-09-13T12:46:08.231Z,1.97
2017-09-13T12:48:35.745Z,2.03
2017-09-13T12:51:03.993Z,2.00
2017-09-13T12:53:32.245Z,1.43
2017-09-13T12:55:59.745Z,1.67
2017-09-13T12:58:27.238Z,2.00
2017-09-13T13:00:54.877Z,2.77
2017-09-13T13:03:22.347Z,1.50
2017-09-13T13:05:50.615Z,2.73
2017-09-13T13:08:18.162Z,1.20
2017-09-13T13:10:45.757Z,1.50
2017-09-13T13:13:13.270Z,1.67
2017-09-13T13:15:40.760Z,1.93
2017-09-13T13:18:08.249Z,1.20
2017-09-13T13:20:35.926Z,1.37
2017-09-13T13:23:03.499Z,1.40
2017-09-13T13:25:30.982Z,1.40
2017-09-13T13:27:58.466Z,1.63
2017-09-13T13:30:25.965Z,1.40
2017-09-13T13:32:53.438Z,1.43
2017-09-13T13:35:20.913Z,1.43
2017-09-13T13:37:48.385Z,1.30
2017-09-13T13:40:15.875Z,1.53
2017-09-13T13:42:43.345Z,1.83
2017-09-13T13:45:11.159Z,1.73
2017-09-13T13:47:38.634Z,1.80
2017-09-13T13:50:06.114Z,2.10
2017-09-13T13:52:33.618Z,1.23
2017-09-13T13:55:01.131Z,1.60
2017-09-13T13:57:28.800Z,1.87
2017-09-13T13:59:57.057Z,2.30
2017-09-13T14:02:25.336Z,1.87
2017-09-13T14:04:52.839Z,1.53
2017-09-13T14:07:20.346Z,1.50
2017-09-13T14:09:47.860Z,1.63
2017-09-13T14:12:15.435Z,1.97
2017-09-13T14:14:44.969Z,2.07
2017-09-13T14:17:12.489Z,1.93
2017-09-13T14:19:39.988Z,1.77
2017-09-13T14:22:08.227Z,2.23
2017-09-13T14:24:36.536Z,1.90
2017-09-13T14:27:04.031Z,2.20
2017-09-13T14:29:31.667Z,1.87
2017-09-13T14:31:59.194Z,2.20
2017-09-13T14:34:27.225Z,1.63
2017-09-13T14:36:54.748Z,1.43
2017-09-13T14:39:22.993Z,1.70
2017-09-13T14:41:50.471Z,1.83
2017-09-13T14:44:18.080Z,1.67
2017-09-13T14:46:45.564Z,2.10
2017-09-13T14:49:13.082Z,2.13
2017-09-13T14:51:40.561Z,1.70
2017-09-13T14:54:08.074Z,2.17
2017-09-13T14:56:36.312Z,1.97
2017-09-13T14:59:03.986Z,1.70
2017-09-13T15:01:31.477Z,2.17
2017-09-13T15:03:59.023Z,2.97
2017-09-13T15:06:27.285Z,2.10
2017-09-13T15:08:54.772Z,1.87
2017-09-13T15:11:22.267Z,1.70
2017-09-13T15:13:49.737Z,1.87
2017-09-13T15:16:17.245Z,2.63
2017-09-13T15:18:44.732Z,2.20
2017-09-13T15:21:12.406Z,1.90
2017-09-13T15:23:39.944Z,2.30
2017-09-13T15:26:08.187Z,1.60
2017-09-13T15:28:35.707Z,2.37
2017-09-13T15:31:03.189Z,2.00
2017-09-13T15:33:30.794Z,2.33
2017-09-13T15:35:59.043Z,2.70
2017-09-13T15:38:26.567Z,2.07
2017-09-13T15:40:54.838Z,2.80
2017-09-13T15:43:22.308Z,3.10
2017-09-13T15:45:49.814Z,2.00
2017-09-13T15:48:17.327Z,2.33
2017-09-13T15:50:45.619Z,1.70
2017-09-13T15:53:13.122Z,1.90
2017-09-13T15:55:40.605Z,1.70
2017-09-13T15:58:08.125Z,1.67
2017-09-13T16:00:35.619Z,4.27
2017-09-13T16:03:03.156Z,2.60
2017-09-13T16:05:31.431Z,2.83
2017-09-13T16:07:58.918Z,2.03
2017-09-13T16:10:27.196Z,3.47
2017-09-13T16:12:54.667Z,2.50
2017-09-13T16:15:22.162Z,1.80
2017-09-13T16:17:49.651Z,1.50
2017-09-13T16:20:17.203Z,2.73
2017-09-13T16:22:44.686Z,1.70
2017-09-13T16:25:12.918Z,1.43
2017-09-13T16:27:40.428Z,2.03
2017-09-13T16:30:08.035Z,1.80
2017-09-13T16:32:36.285Z,1.13
2017-09-13T16:35:03.769Z,1.50
2017-09-13T16:37:31.491Z,1.60
2017-09-13T16:39:59.081Z,2.10
2017-09-13T16:42:27.338Z,0.93
2017-09-13T16:44:54.930Z,1.70
2017-09-13T16:47:22.386Z,1.40
2017-09-13T16:49:50.011Z,2.10
2017-09-13T16:52:17.465Z,1.47
2017-09-13T16:54:44.984Z,1.43
2017-09-13T16:57:12.473Z,1.20
2017-09-13T16:59:39.949Z,1.10
2017-09-13T17:02:07.451Z,1.20
2017-09-13T17:04:35.777Z,1.20
2017-09-13T17:07:03.442Z,1.00
2017-09-13T17:09:31.671Z,1.40
2017-09-13T17:12:00.050Z,1.30
2017-09-13T17:14:28.299Z,2.23
2017-09-13T17:16:55.870Z,1.67
2017-09-13T17:19:23.350Z,1.60
2017-09-13T17:21:50.805Z,1.10
2017-09-13T17:24:19.187Z,1.30
2017-09-13T17:26:47.439Z,1.70
2017-09-13T17:29:14.926Z,1.90
2017-09-13T17:31:42.415Z,1.87
2017-09-13T17:34:10.007Z,1.53
2017-09-13T17:36:37.495Z,1.40
2017-09-13T17:39:05.775Z,1.43
2017-09-13T17:41:33.283Z,1.47
2017-09-13T17:44:00.870Z,1.60
2017-09-13T17:46:28.363Z,2.13
2017-09-13T17:48:56.195Z,1.80
2017-09-13T17:51:23.784Z,2.07
2017-09-13T17:53:51.260Z,1.40
2017-09-13T17:56:18.785Z,1.37
2017-09-13T17:58:46.268Z,3.50
2017-09-13T18:01:13.886Z,1.83
2017-09-13T18:03:42.137Z,1.67
2017-09-13T18:06:09.601Z,1.50
2017-09-13T18:08:37.912Z,1.60
2017-09-13T18:11:05.411Z,2.00
2017-09-13T18:13:32.898Z,2.03
2017-09-13T18:16:00.400Z,1.77
2017-09-13T18:18:27.887Z,5.03
2017-09-13T18:20:55.410Z,1.80
2017-09-13T18:23:22.976Z,1.50
2017-09-13T18:25:51.248Z,1.80
2017-09-13T18:28:18.728Z,2.13
2017-09-13T18:30:46.210Z,2.00
2017-09-13T18:33:14.495Z,1.73
2017-09-13T18:35:42.007Z,2.03
2017-09-13T18:38:09.520Z,1.80
2017-09-13T18:40:37.770Z,1.70
2017-09-13T18:43:05.444Z,1.40
2017-09-13T18:45:32.908Z,1.73
2017-09-13T18:48:00.390Z,1.27
2017-09-13T18:50:27.890Z,1.17
2017-09-13T18:52:55.441Z,1.27
2017-09-13T18:55:23.711Z,1.50
2017-09-13T18:57:51.181Z,1.73
2017-09-13T19:00:18.886Z,1.20
2017-09-13T19:02:46.395Z,1.53
2017-09-13T19:05:13.867Z,1.20
2017-09-13T19:07:41.354Z,1.47
2017-09-13T19:10:09.587Z,1.23
2017-09-13T19:12:37.086Z,1.90
2017-09-13T19:15:04.551Z,1.23
2017-09-13T19:17:32.112Z,1.43
2017-09-13T19:19:59.604Z,1.20
2017-09-13T19:22:27.123Z,1.40
2017-09-13T19:24:54.594Z,0.97
2017-09-13T19:27:22.061Z,1.30
2017-09-13T19:29:49.526Z,1.10
2017-09-13T19:32:18.021Z,1.53
2017-09-13T19:34:45.627Z,1.10
2017-09-13T19:37:13.107Z,1.00
2017-09-13T19:39:40.718Z,1.40
2017-09-13T19:42:08.222Z,1.30
2017-09-13T19:44:35.733Z,1.77
2017-09-13T19:47:04.083Z,1.00
2017-09-13T19:49:31.676Z,1.97
2017-09-13T19:51:59.364Z,1.20
2017-09-13T19:54:26.830Z,0.93
2017-09-13T19:56:54.290Z,1.40
2017-09-13T19:59:21.768Z,1.30
2017-09-13T20:01:49.226Z,1.33
2017-09-13T20:04:17.463Z,1.43
2017-09-13T20:06:44.927Z,1.00
2017-09-13T20:09:13.163Z,1.40
2017-09-13T20:11:41.390Z,1.30
2017-09-13T20:14:08.866Z,1.40
2017-09-13T20:16:37.088Z,1.20
2017-09-13T20:19:04.568Z,1.63
2017-09-13T20:21:32.086Z,1.63
2017-09-13T20:23:59.574Z,1.57
2017-09-13T20:26:27.076Z,1.60
2017-09-13T20:28:54.562Z,1.20
2017-09-13T20:31:22.065Z,1.00
2017-09-13T20:33:49.537Z,1.00
2017-09-13T20:36:17.005Z,1.10
2017-09-13T20:38:44.476Z,1.50
2017-09-13T20:41:11.961Z,0.87
2017-09-13T20:43:39.506Z,1.20
2017-09-13T20:46:07.728Z,1.10
2017-09-13T20:48:35.209Z,1.30
2017-09-13T20:51:02.702Z,1.13
2017-09-13T20:53:30.186Z,0.90
2017-09-13T20:55:57.713Z,1.37
2017-09-13T20:58:25.208Z,0.97
2017-09-13T21:00:52.740Z,1.60
2017-09-13T21:03:20.967Z,1.30
2017-09-13T21:05:48.438Z,1.07
2017-09-13T21:08:16.670Z,1.00
2017-09-13T21:10:44.154Z,1.30
2017-09-13T21:13:11.655Z,1.20
2017-09-13T21:15:39.110Z,1.30
2017-09-13T21:18:06.590Z,1.10
2017-09-13T21:20:34.061Z,1.00
2017-09-13T21:23:01.546Z,1.00
2017-09-13T21:25:29.036Z,0.80
2017-09-13T21:27:56.828Z,0.87
2017-09-13T21:30:24.324Z,0.90
2017-09-13T21:32:51.787Z,0.80
2017-09-13T21:35:19.300Z,2.80
2017-09-13T21:37:46.777Z,0.90
2017-09-13T21:40:14.244Z,0.90
2017-09-13T21:42:41.724Z,1.00
2017-09-13T21:45:09.205Z,1.20
2017-09-13T21:47:36.691Z,1.20
2017-09-13T21:50:04.176Z,0.97
2017-09-13T21:52:31.723Z,0.80
2017-09-13T21:54:59.208Z,0.73
2017-09-13T21:57:27.448Z,1.30
2017-09-13T21:59:54.914Z,1.20
2017-09-13T22:02:22.404Z,0.77
2017-09-13T22:04:49.874Z,1.00
2017-09-13T22:07:17.405Z,0.93
2017-09-13T22:09:44.870Z,0.63
2017-09-13T22:12:12.338Z,1.50
2017-09-13T22:14:39.814Z,0.90
2017-09-13T22:17:07.276Z,0.70
2017-09-13T22:19:35.367Z,0.80
2017-09-13T22:22:02.830Z,0.80
2017-09-13T22:24:30.339Z,0.80
2017-09-13T22:26:58.753Z,0.70
2017-09-13T22:37:06.616Z,0.97
2017-09-13T22:39:34.109Z,1.00
2017-09-13T22:42:01.560Z,1.20
2017-09-13T22:44:29.055Z,0.97
2017-09-13T22:46:56.578Z,1.00
2017-09-13T22:49:24.060Z,0.80
2017-09-13T22:51:51.591Z,0.80
2017-09-13T22:54:19.103Z,1.10
2017-09-13T22:56:46.563Z,0.80
2017-09-13T22:59:14.044Z,0.93
2017-09-13T23:01:41.527Z,0.90
2017-09-13T23:04:08.993Z,1.17
2017-09-13T23:06:37.244Z,1.13
2017-09-13T23:16:43.581Z,1.07
2017-09-13T23:19:11.816Z,1.30
2017-09-13T23:21:39.277Z,1.50
2017-09-13T23:24:09.623Z,1.00
2017-09-13T23:26:37.090Z,1.10
2017-09-13T23:29:04.629Z,1.00
2017-09-13T23:31:32.082Z,1.20
2017-09-13T23:34:00.308Z,1.23
2017-09-13T23:36:27.782Z,1.00
2017-09-13T23:38:55.600Z,0.93
2017-09-13T23:41:23.114Z,1.00
2017-09-13T23:43:50.576Z,1.13
2017-09-13T23:46:18.042Z,1.00
2017-09-13T23:48:45.536Z,1.27
2017-09-13T23:51:13.042Z,0.80
2017-09-13T23:53:40.518Z,1.47
2017-09-13T23:56:08.017Z,1.13
2017-09-13T23:58:36.413Z,0.83
